»·PEaware :: N3298S KPSP-KMYF

N3298S :: KPSP-KMYF

FLIGHT INFORMATION

Flight Status: Arrived
Operator: Privately registered:
United States
More flights under this callsign
Pilot: Todd P. (5750)
Aircraft: BEECH AIRCRAFT BONANZA
(BE36)
More flights by this aircraft type
Origin: KPSP Palm Springs Intl
United States
Destination: KMYF Montgomery
United States
More flights between these airports :: More routes between these airports
Route: +TRM6 TRM V514 MZB
File this flight plan on PilotEdge
Remarks:
Altitude:
(Current/Filed)
10,000ft
Speed:
(Current/Filed)
170kts
Departed: 23-Jul-15 07:29 AM
Arrived: 23-Jul-15 08:16 AM
Distance/Time
Traveled:
69nm/0:47
Distance/Time
To Go:
Arrived

Flight Plot

Page will automatically refresh every two minutes.


Map Options




Map Legend


Flown Route
Filed Route
Departure Airport
Arrival Airport
Navaid (VOR, NDB)
Fix

Horizontal Profiles

Position Reports

Time Latitude Longitude Heading Altitude Ground
Speed
23-Jul-15 07:18 33.823012 -116.498016 55 480ft 0kts
23-Jul-15 07:19 33.823012 -116.498016 55 480ft 0kts
23-Jul-15 07:20 33.823012 -116.498016 55 480ft 0kts
23-Jul-15 07:21 33.823012 -116.498016 55 480ft 0kts
23-Jul-15 07:22 33.823012 -116.498016 55 480ft 0kts
23-Jul-15 07:23 33.823012 -116.498016 55 480ft 0kts
23-Jul-15 07:24 33.823012 -116.498016 55 480ft 0kts
23-Jul-15 07:25 33.823012 -116.498016 55 480ft 0kts
23-Jul-15 07:26 33.823012 -116.498016 55 480ft 0kts
23-Jul-15 07:27 33.823012 -116.498016 55 480ft 0kts
23-Jul-15 07:28 33.823012 -116.498016 55 480ft 0kts
23-Jul-15 07:29 33.823012 -116.498016 55 480ft 0kts
23-Jul-15 07:30 33.823012 -116.498016 55 480ft 0kts
23-Jul-15 07:31 33.823012 -116.498016 55 480ft 0kts
23-Jul-15 07:32 33.823012 -116.498016 55 480ft 0kts
23-Jul-15 07:33 33.823012 -116.498016 55 480ft 0kts
23-Jul-15 07:34 33.823012 -116.498016 55 480ft 0kts
23-Jul-15 07:35 33.823012 -116.498016 55 480ft 0kts
23-Jul-15 07:36 33.824106 -116.498636 324 480ft 14kts
23-Jul-15 07:37 33.824561 -116.499595 261 481ft 0kts
23-Jul-15 07:38 33.824561 -116.499595 261 481ft 0kts
23-Jul-15 07:39 33.824561 -116.499595 261 481ft 0kts
23-Jul-15 07:40 33.824561 -116.499595 261 481ft 0kts
23-Jul-15 07:41 33.833338 -116.508277 321 675ft 94kts
23-Jul-15 07:42 33.853189 -116.525913 322 1878ft 96kts
23-Jul-15 07:43 33.874086 -116.542122 23 3014ft 98kts
23-Jul-15 07:44 33.875592 -116.513185 104 4134ft 97kts
23-Jul-15 07:45 33.867738 -116.482395 108 5190ft 95kts
23-Jul-15 07:46 33.859015 -116.450314 112 6070ft 107kts
23-Jul-15 07:47 33.849073 -116.414974 126 6972ft 111kts
23-Jul-15 07:48 33.825316 -116.391329 130 7895ft 107kts
23-Jul-15 07:49 33.804958 -116.365806 131 8769ft 105kts
23-Jul-15 07:50 33.784210 -116.340753 132 9563ft 106kts
23-Jul-15 07:51 33.761370 -116.313741 134 9972ft 139kts
23-Jul-15 07:52 33.729232 -116.276439 136 9949ft 174kts
23-Jul-15 07:53 33.693527 -116.235340 137 9931ft 175kts
23-Jul-15 07:54 33.659134 -116.195809 137 9923ft 168kts
23-Jul-15 07:55 33.625501 -116.157243 137 9920ft 166kts
23-Jul-15 07:56 33.590805 -116.172587 228 9990ft 156kts
23-Jul-15 07:57 33.557473 -116.206761 219 9990ft 158kts
23-Jul-15 07:58 33.525974 -116.243508 223 9990ft 159kts
23-Jul-15 07:59 33.492011 -116.277751 219 9990ft 159kts
23-Jul-15 08:00 33.456879 -116.310300 218 9982ft 159kts
23-Jul-15 08:01 33.422106 -116.341221 217 9990ft 160kts
23-Jul-15 08:02 33.387012 -116.372092 217 9990ft 159kts
23-Jul-15 08:03 33.357326 -116.398120 217 9990ft 159kts
23-Jul-15 08:04 33.321298 -116.429149 216 10003ft 159kts
23-Jul-15 08:05 33.279323 -116.465425 217 10029ft 160kts
23-Jul-15 08:06 33.248745 -116.492029 217 9902ft 166kts
23-Jul-15 08:07 33.211175 -116.523850 215 9940ft 165kts
23-Jul-15 08:08 33.173467 -116.555046 215 9965ft 166kts
23-Jul-15 08:09 33.135673 -116.586779 215 9988ft 167kts
23-Jul-15 08:10 33.096488 -116.616384 210 9989ft 167kts
23-Jul-15 08:11 33.056697 -116.644709 211 9989ft 168kts
23-Jul-15 08:12 33.017261 -116.672803 212 10007ft 163kts
23-Jul-15 08:13 32.979818 -116.699685 212 9912ft 168kts
23-Jul-15 08:14 32.938786 -116.729017 212 9124ft 175kts
23-Jul-15 08:15 32.897021 -116.758825 211 8331ft 177kts
23-Jul-15 08:16 32.854864 -116.788873 211 7533ft 177kts
23-Jul-15 08:17 32.812641 -116.818927 211 6737ft 177kts
23-Jul-15 08:18 32.770952 -116.848541 210 5929ft 168kts
23-Jul-15 08:19 32.731906 -116.875849 209 5117ft 160kts
23-Jul-15 08:20 32.722679 -116.914335 308 4255ft 144kts
23-Jul-15 08:21 32.741801 -116.950941 296 3784ft 132kts
23-Jul-15 08:22 32.757543 -116.990883 296 3070ft 135kts
23-Jul-15 08:23 32.769751 -117.021895 296 2489ft 95kts
23-Jul-15 08:24 32.780778 -117.049798 296 1989ft 93kts
23-Jul-15 08:25 32.791448 -117.077618 296 1532ft 89kts
23-Jul-15 08:26 32.802344 -117.103773 291 1057ft 91kts
23-Jul-15 08:27 32.811658 -117.128494 296 567ft 83kts
23-Jul-15 08:28 32.815751 -117.141013 245 429ft 0kts
23-Jul-15 08:29 32.814414 -117.143184 62 430ft 0kts

Navigation Log

Ident Type
Flight plan parsing failed, navigation log unavailable